createdAt,value
2018-01-05T00:00:03.228Z,10.4
2018-01-05T00:15:05.019Z,10.3
2018-01-05T00:30:02.532Z,10.1
2018-01-05T00:45:38.605Z,9.8
2018-01-05T01:00:13.751Z,9
2018-01-05T01:15:03.412Z,8.5
2018-01-05T01:30:02.745Z,8.3
2018-01-05T01:45:03.418Z,8.2
2018-01-05T02:00:02.940Z,8.1
2018-01-05T02:15:03.621Z,8.1
2018-01-05T02:30:03.016Z,7.9
2018-01-05T02:45:03.800Z,7.8
2018-01-05T03:00:02.234Z,7.8
2018-01-05T03:15:03.375Z,7.6
2018-01-05T03:30:39.533Z,7.3
2018-01-05T03:45:02.410Z,7.2
2018-01-05T04:00:02.631Z,6.9
2018-01-05T04:15:03.292Z,6.6
2018-01-05T04:30:02.616Z,5.9
2018-01-05T04:45:39.623Z,5.6
2018-01-05T05:00:02.503Z,5.6
2018-01-05T05:15:02.809Z,5.4
2018-01-05T05:30:03.176Z,5.2
2018-01-05T05:45:59.047Z,5
2018-01-05T06:00:49.266Z,4.8
2018-01-05T06:15:37.990Z,4.6
2018-01-05T06:30:08.184Z,4
2018-01-05T06:45:02.502Z,4.1
2018-01-05T07:00:50.571Z,3.9
2018-01-05T07:15:08.844Z,4
2018-01-05T07:30:03.188Z,3.9
2018-01-05T07:45:02.506Z,4.3
2018-01-05T08:00:02.982Z,4.7
2018-01-05T08:15:02.200Z,5.1
2018-01-05T08:30:22.179Z,5.3
2018-01-05T08:45:02.438Z,5.5
2018-01-05T09:15:03.303Z,6.3
2018-01-05T09:30:02.910Z,6.9
2018-01-05T09:45:03.897Z,8.1
2018-01-05T10:00:04.251Z,9
2018-01-05T10:15:02.603Z,9.1
2018-01-05T10:30:03.072Z,9.8
2018-01-05T10:45:02.356Z,10.5
2018-01-05T11:00:02.633Z,10.8
2018-01-05T11:15:02.880Z,10.6
2018-01-05T11:30:28.623Z,10.8
2018-01-05T11:45:15.596Z,10.9
2018-01-05T12:00:03.246Z,10.9
2018-01-05T12:15:09.136Z,11.1
2018-01-05T12:30:03.535Z,11.1
2018-01-05T12:45:03.391Z,11.3
2018-01-05T13:00:32.040Z,11.4
2018-01-05T13:30:02.767Z,11.4
2018-01-05T13:45:03.389Z,11.3
2018-01-05T14:00:02.798Z,11.3
2018-01-05T14:15:33.437Z,10.7
2018-01-05T14:30:02.754Z,10.8
2018-01-05T14:45:03.033Z,10.2
2018-01-05T15:00:02.333Z,9.9
2018-01-05T15:15:02.903Z,9.7
2018-01-05T15:30:05.798Z,9.3
2018-01-05T15:45:02.393Z,9.2
2018-01-05T16:00:03.082Z,9.1
2018-01-05T16:15:02.385Z,8.9
2018-01-05T16:30:02.847Z,8.5
2018-01-05T16:45:19.169Z,8.2
2018-01-05T17:00:10.737Z,8.2
2018-01-05T17:15:03.001Z,7.9
2018-01-05T17:30:02.784Z,7.8
2018-01-05T17:45:19.365Z,8.3
2018-01-05T18:00:03.081Z,8.2
2018-01-05T18:15:02.585Z,8.1
2018-01-05T18:30:03.044Z,7.8
2018-01-05T18:45:02.328Z,7.9
2018-01-05T19:01:40.669Z,7.8
2018-01-05T19:15:14.783Z,7.6
2018-01-05T19:30:03.259Z,7.4
2018-01-05T19:45:02.558Z,7.4
2018-01-05T20:00:02.832Z,7.4
2018-01-05T20:15:21.548Z,7.6
2018-01-05T20:30:10.794Z,7.1
2018-01-05T20:45:03.099Z,7.4
2018-01-05T21:15:02.982Z,7.4
2018-01-05T21:30:02.503Z,7.4
2018-01-05T21:45:05.821Z,7.5
2018-01-05T22:00:02.982Z,7.5
2018-01-05T22:15:02.210Z,7.5
2018-01-05T22:30:02.695Z,7.2
2018-01-05T23:00:03.078Z,7.3
2018-01-05T23:15:02.534Z,7.2
2018-01-05T23:30:04.783Z,7.1
2018-01-05T23:45:02.951Z,7.1
